sensor_id;sensor_type;location;lat;lon;timestamp;P1;durP1;ratioP1;P2;durP2;ratioP2
2123;SDS011;1068;52.460;13.528;2023-12-20T00:02:03;5.13;;;4.73;;
2123;SDS011;1068;52.460;13.528;2023-12-20T00:04:30;5.20;;;4.70;;
2123;SDS011;1068;52.460;13.528;2023-12-20T00:06:57;5.17;;;4.67;;
2123;SDS011;1068;52.460;13.528;2023-12-20T00:09:24;4.93;;;4.43;;
2123;SDS011;1068;52.460;13.528;2023-12-20T00:11:51;5.67;;;5.20;;
2123;SDS011;1068;52.460;13.528;2023-12-20T00:14:19;4.30;;;4.00;;
2123;SDS011;1068;52.460;13.528;2023-12-20T00:16:46;4.27;;;3.97;;
2123;SDS011;1068;52.460;13.528;2023-12-20T00:19:13;4.80;;;4.50;;
2123;SDS011;1068;52.460;13.528;2023-12-20T00:21:40;4.37;;;4.00;;
2123;SDS011;1068;52.460;13.528;2023-12-20T00:24:07;4.40;;;4.10;;
2123;SDS011;1068;52.460;13.528;2023-12-20T00:26:34;4.90;;;4.60;;
2123;SDS011;1068;52.460;13.528;2023-12-20T00:29:01;4.63;;;4.33;;
2123;SDS011;1068;52.460;13.528;2023-12-20T00:31:29;4.17;;;3.83;;
2123;SDS011;1068;52.460;13.528;2023-12-20T00:33:56;4.37;;;4.03;;
2123;SDS011;1068;52.460;13.528;2023-12-20T00:36:23;6.03;;;4.30;;
2123;SDS011;1068;52.460;13.528;2023-12-20T00:38:50;4.63;;;4.33;;
2123;SDS011;1068;52.460;13.528;2023-12-20T00:41:17;4.70;;;4.30;;
2123;SDS011;1068;52.460;13.528;2023-12-20T00:43:44;4.40;;;4.10;;
2123;SDS011;1068;52.460;13.528;2023-12-20T00:46:11;4.80;;;4.50;;
2123;SDS011;1068;52.460;13.528;2023-12-20T00:48:40;4.30;;;4.00;;
2123;SDS011;1068;52.460;13.528;2023-12-20T00:51:07;4.37;;;4.07;;
2123;SDS011;1068;52.460;13.528;2023-12-20T00:53:34;3.80;;;3.60;;
2123;SDS011;1068;52.460;13.528;2023-12-20T00:56:01;4.30;;;4.00;;
2123;SDS011;1068;52.460;13.528;2023-12-20T00:58:28;4.40;;;4.10;;
2123;SDS011;1068;52.460;13.528;2023-12-20T01:00:55;4.60;;;4.00;;
2123;SDS011;1068;52.460;13.528;2023-12-20T01:03:23;3.70;;;3.40;;
2123;SDS011;1068;52.460;13.528;2023-12-20T01:05:51;4.43;;;4.10;;
2123;SDS011;1068;52.460;13.528;2023-12-20T01:08:18;3.97;;;3.70;;
2123;SDS011;1068;52.460;13.528;2023-12-20T01:10:45;3.97;;;3.77;;
2123;SDS011;1068;52.460;13.528;2023-12-20T01:13:12;4.17;;;3.87;;
2123;SDS011;1068;52.460;13.528;2023-12-20T01:15:39;3.93;;;3.63;;
2123;SDS011;1068;52.460;13.528;2023-12-20T01:18:06;4.20;;;3.80;;
2123;SDS011;1068;52.460;13.528;2023-12-20T01:20:33;3.83;;;3.57;;
2123;SDS011;1068;52.460;13.528;2023-12-20T01:23:02;3.90;;;3.60;;
2123;SDS011;1068;52.460;13.528;2023-12-20T01:25:29;4.80;;;4.40;;
2123;SDS011;1068;52.460;13.528;2023-12-20T01:27:56;4.30;;;4.00;;
2123;SDS011;1068;52.460;13.528;2023-12-20T01:30:23;4.00;;;3.60;;
2123;SDS011;1068;52.460;13.528;2023-12-20T01:32:50;3.93;;;3.73;;
2123;SDS011;1068;52.460;13.528;2023-12-20T01:35:17;3.53;;;3.23;;
2123;SDS011;1068;52.460;13.528;2023-12-20T01:37:44;4.10;;;3.80;;
2123;SDS011;1068;52.460;13.528;2023-12-20T01:40:12;3.37;;;3.17;;
2123;SDS011;1068;52.460;13.528;2023-12-20T01:42:39;4.17;;;3.77;;
2123;SDS011;1068;52.460;13.528;2023-12-20T01:45:06;3.53;;;3.23;;
2123;SDS011;1068;52.460;13.528;2023-12-20T01:47:34;4.10;;;3.80;;
2123;SDS011;1068;52.460;13.528;2023-12-20T01:50:01;4.07;;;3.77;;
2123;SDS011;1068;52.460;13.528;2023-12-20T01:52:28;3.97;;;3.67;;
2123;SDS011;1068;52.460;13.528;2023-12-20T01:54:56;4.17;;;3.87;;
2123;SDS011;1068;52.460;13.528;2023-12-20T01:57:29;3.53;;;3.33;;
2123;SDS011;1068;52.460;13.528;2023-12-20T01:59:56;3.43;;;3.20;;
2123;SDS011;1068;52.460;13.528;2023-12-20T02:02:23;3.43;;;3.13;;
2123;SDS011;1068;52.460;13.528;2023-12-20T02:04:50;3.90;;;3.60;;
2123;SDS011;1068;52.460;13.528;2023-12-20T02:07:17;3.63;;;3.37;;
2123;SDS011;1068;52.460;13.528;2023-12-20T02:09:45;3.63;;;3.33;;
2123;SDS011;1068;52.460;13.528;2023-12-20T02:12:12;3.63;;;3.00;;
2123;SDS011;1068;52.460;13.528;2023-12-20T02:14:40;3.90;;;3.60;;
2123;SDS011;1068;52.460;13.528;2023-12-20T02:17:07;3.17;;;2.97;;
2123;SDS011;1068;52.460;13.528;2023-12-20T02:19:34;3.20;;;3.00;;
2123;SDS011;1068;52.460;13.528;2023-12-20T02:22:09;3.20;;;2.80;;
2123;SDS011;1068;52.460;13.528;2023-12-20T02:24:36;4.00;;;3.70;;
2123;SDS011;1068;52.460;13.528;2023-12-20T02:27:03;2.90;;;2.70;;
2123;SDS011;1068;52.460;13.528;2023-12-20T02:29:32;3.73;;;3.53;;
2123;SDS011;1068;52.460;13.528;2023-12-20T02:31:59;3.03;;;2.83;;
2123;SDS011;1068;52.460;13.528;2023-12-20T02:34:26;2.07;;;1.97;;
2123;SDS011;1068;52.460;13.528;2023-12-20T02:36:53;2.30;;;2.20;;
2123;SDS011;1068;52.460;13.528;2023-12-20T02:39:21;3.20;;;3.00;;
2123;SDS011;1068;52.460;13.528;2023-12-20T02:41:48;2.80;;;2.60;;
2123;SDS011;1068;52.460;13.528;2023-12-20T02:44:15;2.67;;;2.47;;
2123;SDS011;1068;52.460;13.528;2023-12-20T02:46:42;3.00;;;2.90;;
2123;SDS011;1068;52.460;13.528;2023-12-20T02:49:09;2.50;;;2.40;;
2123;SDS011;1068;52.460;13.528;2023-12-20T02:51:36;2.70;;;2.60;;
2123;SDS011;1068;52.460;13.528;2023-12-20T02:54:04;2.30;;;2.20;;
2123;SDS011;1068;52.460;13.528;2023-12-20T02:56:32;2.93;;;2.73;;
2123;SDS011;1068;52.460;13.528;2023-12-20T02:58:59;2.33;;;2.23;;
2123;SDS011;1068;52.460;13.528;2023-12-20T03:01:26;3.17;;;2.97;;
2123;SDS011;1068;52.460;13.528;2023-12-20T03:03:53;3.03;;;2.90;;
2123;SDS011;1068;52.460;13.528;2023-12-20T03:06:20;2.73;;;2.63;;
2123;SDS011;1068;52.460;13.528;2023-12-20T03:08:46;3.57;;;3.33;;
2123;SDS011;1068;52.460;13.528;2023-12-20T03:11:13;3.17;;;2.97;;
2123;SDS011;1068;52.460;13.528;2023-12-20T03:13:41;3.80;;;3.50;;
2123;SDS011;1068;52.460;13.528;2023-12-20T03:16:08;4.00;;;3.80;;
2123;SDS011;1068;52.460;13.528;2023-12-20T03:18:35;3.87;;;3.63;;
2123;SDS011;1068;52.460;13.528;2023-12-20T03:21:02;3.83;;;3.63;;
2123;SDS011;1068;52.460;13.528;2023-12-20T03:23:29;4.57;;;4.27;;
2123;SDS011;1068;52.460;13.528;2023-12-20T03:25:57;3.90;;;3.50;;
2123;SDS011;1068;52.460;13.528;2023-12-20T03:28:24;4.10;;;3.80;;
2123;SDS011;1068;52.460;13.528;2023-12-20T03:30:52;4.93;;;4.50;;
2123;SDS011;1068;52.460;13.528;2023-12-20T03:33:19;4.90;;;4.40;;
2123;SDS011;1068;52.460;13.528;2023-12-20T03:35:46;4.40;;;4.10;;
2123;SDS011;1068;52.460;13.528;2023-12-20T03:38:13;5.37;;;4.97;;
2123;SDS011;1068;52.460;13.528;2023-12-20T03:40:40;5.23;;;4.83;;
2123;SDS011;1068;52.460;13.528;2023-12-20T03:43:07;4.63;;;4.23;;
2123;SDS011;1068;52.460;13.528;2023-12-20T03:45:34;4.80;;;4.40;;
2123;SDS011;1068;52.460;13.528;2023-12-20T03:48:02;6.40;;;3.93;;
2123;SDS011;1068;52.460;13.528;2023-12-20T03:50:29;4.63;;;4.20;;
2123;SDS011;1068;52.460;13.528;2023-12-20T03:52:56;5.07;;;3.60;;
2123;SDS011;1068;52.460;13.528;2023-12-20T03:55:23;4.30;;;3.90;;
2123;SDS011;1068;52.460;13.528;2023-12-20T03:57:50;5.00;;;3.60;;
2123;SDS011;1068;52.460;13.528;2023-12-20T04:00:17;4.40;;;3.73;;
2123;SDS011;1068;52.460;13.528;2023-12-20T04:02:44;4.20;;;3.80;;
2123;SDS011;1068;52.460;13.528;2023-12-20T04:05:12;5.90;;;2.87;;
2123;SDS011;1068;52.460;13.528;2023-12-20T04:07:39;4.93;;;3.23;;
2123;SDS011;1068;52.460;13.528;2023-12-20T04:10:07;4.13;;;2.37;;
2123;SDS011;1068;52.460;13.528;2023-12-20T04:12:34;3.77;;;2.97;;
2123;SDS011;1068;52.460;13.528;2023-12-20T04:15:01;3.40;;;2.67;;
2123;SDS011;1068;52.460;13.528;2023-12-20T04:17:33;4.83;;;2.80;;
2123;SDS011;1068;52.460;13.528;2023-12-20T04:20:00;4.73;;;2.23;;
2123;SDS011;1068;52.460;13.528;2023-12-20T04:22:29;5.70;;;2.53;;
2123;SDS011;1068;52.460;13.528;2023-12-20T04:24:56;4.53;;;2.10;;
2123;SDS011;1068;52.460;13.528;2023-12-20T04:27:23;3.77;;;2.30;;
2123;SDS011;1068;52.460;13.528;2023-12-20T04:29:50;2.87;;;2.00;;
2123;SDS011;1068;52.460;13.528;2023-12-20T04:32:17;5.47;;;3.00;;
2123;SDS011;1068;52.460;13.528;2023-12-20T04:34:44;5.50;;;2.00;;
2123;SDS011;1068;52.460;13.528;2023-12-20T04:37:11;2.57;;;2.30;;
2123;SDS011;1068;52.460;13.528;2023-12-20T04:39:39;2.67;;;1.90;;
2123;SDS011;1068;52.460;13.528;2023-12-20T04:42:06;8.07;;;2.23;;
2123;SDS011;1068;52.460;13.528;2023-12-20T04:44:33;3.10;;;2.43;;
2123;SDS011;1068;52.460;13.528;2023-12-20T04:47:00;3.57;;;2.40;;
2123;SDS011;1068;52.460;13.528;2023-12-20T04:49:28;3.37;;;2.37;;
2123;SDS011;1068;52.460;13.528;2023-12-20T04:51:55;5.97;;;2.20;;
2123;SDS011;1068;52.460;13.528;2023-12-20T04:54:21;4.10;;;2.83;;
2123;SDS011;1068;52.460;13.528;2023-12-20T04:56:50;4.90;;;2.10;;
2123;SDS011;1068;52.460;13.528;2023-12-20T04:59:17;4.73;;;2.43;;
2123;SDS011;1068;52.460;13.528;2023-12-20T05:01:44;4.67;;;2.30;;
2123;SDS011;1068;52.460;13.528;2023-12-20T05:04:11;5.57;;;2.53;;
2123;SDS011;1068;52.460;13.528;2023-12-20T05:06:38;8.30;;;2.10;;
2123;SDS011;1068;52.460;13.528;2023-12-20T05:09:05;2.50;;;1.63;;
2123;SDS011;1068;52.460;13.528;2023-12-20T05:11:32;4.77;;;2.60;;
2123;SDS011;1068;52.460;13.528;2023-12-20T05:14:00;5.57;;;2.00;;
2123;SDS011;1068;52.460;13.528;2023-12-20T05:16:27;6.27;;;2.40;;
2123;SDS011;1068;52.460;13.528;2023-12-20T05:18:54;3.20;;;2.40;;
2123;SDS011;1068;52.460;13.528;2023-12-20T05:21:21;6.80;;;2.73;;
2123;SDS011;1068;52.460;13.528;2023-12-20T05:23:48;8.13;;;2.93;;
2123;SDS011;1068;52.460;13.528;2023-12-20T05:26:15;8.80;;;3.30;;
2123;SDS011;1068;52.460;13.528;2023-12-20T05:28:41;3.53;;;3.03;;
2123;SDS011;1068;52.460;13.528;2023-12-20T05:31:10;8.57;;;2.80;;
2123;SDS011;1068;52.460;13.528;2023-12-20T05:33:37;3.10;;;2.67;;
2123;SDS011;1068;52.460;13.528;2023-12-20T05:36:04;4.13;;;2.50;;
2123;SDS011;1068;52.460;13.528;2023-12-20T05:38:34;6.13;;;3.40;;
2123;SDS011;1068;52.460;13.528;2023-12-20T05:41:01;5.33;;;2.40;;
2123;SDS011;1068;52.460;13.528;2023-12-20T05:43:28;3.90;;;2.40;;
2123;SDS011;1068;52.460;13.528;2023-12-20T05:45:55;10.43;;;2.20;;
2123;SDS011;1068;52.460;13.528;2023-12-20T05:48:24;2.93;;;1.93;;
2123;SDS011;1068;52.460;13.528;2023-12-20T05:50:51;3.30;;;2.30;;
2123;SDS011;1068;52.460;13.528;2023-12-20T05:53:18;7.50;;;4.60;;
2123;SDS011;1068;52.460;13.528;2023-12-20T05:55:45;2.63;;;1.73;;
2123;SDS011;1068;52.460;13.528;2023-12-20T05:58:12;4.10;;;1.93;;
2123;SDS011;1068;52.460;13.528;2023-12-20T06:00:39;8.40;;;2.70;;
2123;SDS011;1068;52.460;13.528;2023-12-20T06:03:05;5.47;;;2.33;;
2123;SDS011;1068;52.460;13.528;2023-12-20T06:05:34;11.70;;;2.40;;
2123;SDS011;1068;52.460;13.528;2023-12-20T06:08:01;5.20;;;2.17;;
2123;SDS011;1068;52.460;13.528;2023-12-20T06:10:28;4.77;;;2.30;;
2123;SDS011;1068;52.460;13.528;2023-12-20T06:12:55;5.63;;;1.53;;
2123;SDS011;1068;52.460;13.528;2023-12-20T06:15:23;3.80;;;1.90;;
2123;SDS011;1068;52.460;13.528;2023-12-20T06:17:50;5.77;;;2.03;;
2123;SDS011;1068;52.460;13.528;2023-12-20T06:20:17;4.03;;;1.77;;
2123;SDS011;1068;52.460;13.528;2023-12-20T06:22:45;3.10;;;1.70;;
2123;SDS011;1068;52.460;13.528;2023-12-20T06:25:12;5.03;;;1.70;;
2123;SDS011;1068;52.460;13.528;2023-12-20T06:27:39;5.27;;;2.00;;
2123;SDS011;1068;52.460;13.528;2023-12-20T06:30:07;1.80;;;1.50;;
2123;SDS011;1068;52.460;13.528;2023-12-20T06:32:35;9.10;;;1.63;;
2123;SDS011;1068;52.460;13.528;2023-12-20T06:35:03;7.87;;;1.83;;
2123;SDS011;1068;52.460;13.528;2023-12-20T06:37:30;2.13;;;1.20;;
2123;SDS011;1068;52.460;13.528;2023-12-20T06:39:58;3.43;;;1.90;;
2123;SDS011;1068;52.460;13.528;2023-12-20T06:42:25;4.10;;;1.30;;
2123;SDS011;1068;52.460;13.528;2023-12-20T06:44:52;4.30;;;1.40;;
2123;SDS011;1068;52.460;13.528;2023-12-20T06:47:19;4.67;;;1.47;;
2123;SDS011;1068;52.460;13.528;2023-12-20T06:49:46;5.90;;;1.90;;
2123;SDS011;1068;52.460;13.528;2023-12-20T06:52:13;7.50;;;1.90;;
2123;SDS011;1068;52.460;13.528;2023-12-20T06:54:40;6.57;;;2.20;;
2123;SDS011;1068;52.460;13.528;2023-12-20T06:57:08;7.90;;;2.37;;
2123;SDS011;1068;52.460;13.528;2023-12-20T06:59:37;7.00;;;3.30;;
2123;SDS011;1068;52.460;13.528;2023-12-20T07:02:05;4.70;;;2.50;;
2123;SDS011;1068;52.460;13.528;2023-12-20T07:04:32;10.40;;;2.50;;
2123;SDS011;1068;52.460;13.528;2023-12-20T07:06:59;7.70;;;1.70;;
2123;SDS011;1068;52.460;13.528;2023-12-20T07:09:26;5.47;;;1.83;;
2123;SDS011;1068;52.460;13.528;2023-12-20T07:11:52;3.47;;;1.73;;
2123;SDS011;1068;52.460;13.528;2023-12-20T07:14:21;8.27;;;1.67;;
2123;SDS011;1068;52.460;13.528;2023-12-20T07:16:48;3.80;;;1.73;;
2123;SDS011;1068;52.460;13.528;2023-12-20T07:19:15;3.53;;;1.80;;
2123;SDS011;1068;52.460;13.528;2023-12-20T07:21:42;3.23;;;1.80;;
2123;SDS011;1068;52.460;13.528;2023-12-20T07:24:08;4.80;;;2.30;;
2123;SDS011;1068;52.460;13.528;2023-12-20T07:26:35;1.77;;;1.67;;
2123;SDS011;1068;52.460;13.528;2023-12-20T07:29:03;4.13;;;1.87;;
2123;SDS011;1068;52.460;13.528;2023-12-20T07:31:33;9.67;;;1.73;;
2123;SDS011;1068;52.460;13.528;2023-12-20T07:34:00;5.97;;;2.17;;
2123;SDS011;1068;52.460;13.528;2023-12-20T07:36:26;6.47;;;2.23;;
2123;SDS011;1068;52.460;13.528;2023-12-20T07:38:53;4.57;;;2.63;;
2123;SDS011;1068;52.460;13.528;2023-12-20T07:41:20;8.57;;;2.50;;
2123;SDS011;1068;52.460;13.528;2023-12-20T07:43:48;12.73;;;4.70;;
2123;SDS011;1068;52.460;13.528;2023-12-20T07:46:16;5.40;;;1.83;;
2123;SDS011;1068;52.460;13.528;2023-12-20T07:48:45;10.10;;;2.30;;
2123;SDS011;1068;52.460;13.528;2023-12-20T07:51:12;5.57;;;2.10;;
2123;SDS011;1068;52.460;13.528;2023-12-20T07:53:39;5.07;;;1.83;;
2123;SDS011;1068;52.460;13.528;2023-12-20T07:56:13;4.90;;;2.30;;
2123;SDS011;1068;52.460;13.528;2023-12-20T07:58:40;7.83;;;2.30;;
2123;SDS011;1068;52.460;13.528;2023-12-20T08:01:07;3.10;;;1.97;;
2123;SDS011;1068;52.460;13.528;2023-12-20T08:03:34;6.80;;;2.27;;
2123;SDS011;1068;52.460;13.528;2023-12-20T08:06:02;3.63;;;1.90;;
2123;SDS011;1068;52.460;13.528;2023-12-20T08:08:30;5.10;;;2.67;;
2123;SDS011;1068;52.460;13.528;2023-12-20T08:10:57;4.13;;;2.63;;
2123;SDS011;1068;52.460;13.528;2023-12-20T08:13:25;5.93;;;2.00;;
2123;SDS011;1068;52.460;13.528;2023-12-20T08:15:52;3.87;;;2.07;;
2123;SDS011;1068;52.460;13.528;2023-12-20T08:18:20;7.10;;;2.33;;
2123;SDS011;1068;52.460;13.528;2023-12-20T08:20:47;6.20;;;2.33;;
2123;SDS011;1068;52.460;13.528;2023-12-20T08:23:16;4.63;;;2.70;;
2123;SDS011;1068;52.460;13.528;2023-12-20T08:25:43;8.70;;;2.60;;
2123;SDS011;1068;52.460;13.528;2023-12-20T08:28:11;3.07;;;2.30;;
2123;SDS011;1068;52.460;13.528;2023-12-20T08:30:37;6.63;;;2.93;;
2123;SDS011;1068;52.460;13.528;2023-12-20T08:33:05;5.10;;;2.33;;
2123;SDS011;1068;52.460;13.528;2023-12-20T08:35:36;6.67;;;2.70;;
2123;SDS011;1068;52.460;13.528;2023-12-20T08:38:03;3.73;;;1.90;;
2123;SDS011;1068;52.460;13.528;2023-12-20T08:40:31;2.40;;;1.50;;
2123;SDS011;1068;52.460;13.528;2023-12-20T08:42:58;4.30;;;1.70;;
2123;SDS011;1068;52.460;13.528;2023-12-20T08:45:25;4.67;;;1.70;;
2123;SDS011;1068;52.460;13.528;2023-12-20T08:47:52;8.77;;;1.83;;
2123;SDS011;1068;52.460;13.528;2023-12-20T08:50:19;12.40;;;1.97;;
2123;SDS011;1068;52.460;13.528;2023-12-20T08:52:46;9.83;;;2.20;;
2123;SDS011;1068;52.460;13.528;2023-12-20T08:55:13;6.03;;;2.00;;
2123;SDS011;1068;52.460;13.528;2023-12-20T08:57:42;3.87;;;1.70;;
2123;SDS011;1068;52.460;13.528;2023-12-20T09:00:10;7.23;;;1.90;;
2123;SDS011;1068;52.460;13.528;2023-12-20T09:02:37;4.57;;;2.20;;
2123;SDS011;1068;52.460;13.528;2023-12-20T09:05:04;6.97;;;2.60;;
2123;SDS011;1068;52.460;13.528;2023-12-20T09:07:31;10.30;;;2.60;;
2123;SDS011;1068;52.460;13.528;2023-12-20T09:09:58;5.93;;;2.20;;
2123;SDS011;1068;52.460;13.528;2023-12-20T09:12:25;5.57;;;1.80;;
2123;SDS011;1068;52.460;13.528;2023-12-20T09:14:53;4.80;;;1.83;;
2123;SDS011;1068;52.460;13.528;2023-12-20T09:17:20;2.40;;;1.77;;
2123;SDS011;1068;52.460;13.528;2023-12-20T09:19:48;11.00;;;2.20;;
2123;SDS011;1068;52.460;13.528;2023-12-20T09:22:17;8.50;;;2.37;;
2123;SDS011;1068;52.460;13.528;2023-12-20T09:24:44;4.13;;;2.20;;
2123;SDS011;1068;52.460;13.528;2023-12-20T09:27:11;7.67;;;2.67;;
2123;SDS011;1068;52.460;13.528;2023-12-20T09:29:38;3.97;;;2.00;;
2123;SDS011;1068;52.460;13.528;2023-12-20T09:32:06;1.60;;;1.23;;
2123;SDS011;1068;52.460;13.528;2023-12-20T09:34:33;1.20;;;1.00;;
2123;SDS011;1068;52.460;13.528;2023-12-20T09:37:02;12.90;;;2.73;;
2123;SDS011;1068;52.460;13.528;2023-12-20T09:39:29;5.63;;;2.20;;
2123;SDS011;1068;52.460;13.528;2023-12-20T09:41:59;3.83;;;2.37;;
2123;SDS011;1068;52.460;13.528;2023-12-20T09:44:26;5.83;;;1.77;;
2123;SDS011;1068;52.460;13.528;2023-12-20T09:46:54;3.90;;;2.33;;
2123;SDS011;1068;52.460;13.528;2023-12-20T09:49:23;6.63;;;2.43;;
2123;SDS011;1068;52.460;13.528;2023-12-20T09:51:50;4.93;;;2.13;;
2123;SDS011;1068;52.460;13.528;2023-12-20T09:54:17;7.20;;;2.42;;
2123;SDS011;1068;52.460;13.528;2023-12-20T09:56:45;3.47;;;2.47;;
2123;SDS011;1068;52.460;13.528;2023-12-20T09:59:12;8.93;;;2.67;;
2123;SDS011;1068;52.460;13.528;2023-12-20T10:01:39;8.80;;;2.07;;
2123;SDS011;1068;52.460;13.528;2023-12-20T10:04:07;2.40;;;1.63;;
2123;SDS011;1068;52.460;13.528;2023-12-20T10:06:38;4.53;;;1.80;;
2123;SDS011;1068;52.460;13.528;2023-12-20T10:09:05;3.83;;;2.40;;
2123;SDS011;1068;52.460;13.528;2023-12-20T10:11:34;5.17;;;1.90;;
2123;SDS011;1068;52.460;13.528;2023-12-20T10:14:02;8.53;;;1.50;;
2123;SDS011;1068;52.460;13.528;2023-12-20T10:16:29;5.53;;;2.23;;
2123;SDS011;1068;52.460;13.528;2023-12-20T10:18:56;3.23;;;1.97;;
2123;SDS011;1068;52.460;13.528;2023-12-20T10:21:23;2.63;;;1.40;;
2123;SDS011;1068;52.460;13.528;2023-12-20T10:23:52;7.60;;;1.73;;
2123;SDS011;1068;52.460;13.528;2023-12-20T10:26:20;10.13;;;1.60;;
2123;SDS011;1068;52.460;13.528;2023-12-20T10:28:49;3.60;;;1.63;;
2123;SDS011;1068;52.460;13.528;2023-12-20T10:31:27;6.57;;;1.60;;
2123;SDS011;1068;52.460;13.528;2023-12-20T10:33:55;3.10;;;1.50;;
2123;SDS011;1068;52.460;13.528;2023-12-20T10:36:23;3.10;;;1.70;;
2123;SDS011;1068;52.460;13.528;2023-12-20T10:38:53;5.73;;;2.37;;
2123;SDS011;1068;52.460;13.528;2023-12-20T10:41:22;2.50;;;1.53;;
2123;SDS011;1068;52.460;13.528;2023-12-20T10:43:51;7.23;;;2.10;;
2123;SDS011;1068;52.460;13.528;2023-12-20T10:46:18;6.53;;;2.10;;
2123;SDS011;1068;52.460;13.528;2023-12-20T10:48:45;8.97;;;1.93;;
2123;SDS011;1068;52.460;13.528;2023-12-20T10:51:13;4.63;;;1.67;;
2123;SDS011;1068;52.460;13.528;2023-12-20T10:53:41;9.10;;;1.97;;
2123;SDS011;1068;52.460;13.528;2023-12-20T10:56:10;6.97;;;2.27;;
2123;SDS011;1068;52.460;13.528;2023-12-20T10:58:39;4.83;;;1.77;;
2123;SDS011;1068;52.460;13.528;2023-12-20T11:01:08;3.50;;;1.30;;
2123;SDS011;1068;52.460;13.528;2023-12-20T11:03:36;6.83;;;2.37;;
2123;SDS011;1068;52.460;13.528;2023-12-20T11:06:04;5.80;;;2.13;;
2123;SDS011;1068;52.460;13.528;2023-12-20T11:08:35;3.23;;;1.80;;
2123;SDS011;1068;52.460;13.528;2023-12-20T11:11:03;2.87;;;2.03;;
2123;SDS011;1068;52.460;13.528;2023-12-20T11:13:34;4.53;;;2.10;;
2123;SDS011;1068;52.460;13.528;2023-12-20T11:16:02;6.67;;;2.33;;
2123;SDS011;1068;52.460;13.528;2023-12-20T11:18:29;10.00;;;2.20;;
2123;SDS011;1068;52.460;13.528;2023-12-20T11:21:00;7.70;;;1.80;;
2123;SDS011;1068;52.460;13.528;2023-12-20T11:23:27;3.23;;;1.77;;
2123;SDS011;1068;52.460;13.528;2023-12-20T11:25:56;2.90;;;2.00;;
2123;SDS011;1068;52.460;13.528;2023-12-20T11:28:25;7.20;;;2.10;;
2123;SDS011;1068;52.460;13.528;2023-12-20T11:30:54;6.07;;;1.90;;
2123;SDS011;1068;52.460;13.528;2023-12-20T11:33:21;9.40;;;2.57;;
2123;SDS011;1068;52.460;13.528;2023-12-20T11:35:48;5.20;;;1.87;;
2123;SDS011;1068;52.460;13.528;2023-12-20T11:38:16;5.53;;;2.30;;
2123;SDS011;1068;52.460;13.528;2023-12-20T11:40:43;5.47;;;1.67;;
2123;SDS011;1068;52.460;13.528;2023-12-20T11:43:10;5.00;;;2.40;;
2123;SDS011;1068;52.460;13.528;2023-12-20T11:45:37;8.20;;;1.80;;
2123;SDS011;1068;52.460;13.528;2023-12-20T11:48:05;5.30;;;1.90;;
2123;SDS011;1068;52.460;13.528;2023-12-20T11:50:33;3.77;;;1.70;;
2123;SDS011;1068;52.460;13.528;2023-12-20T11:53:00;4.73;;;2.07;;
2123;SDS011;1068;52.460;13.528;2023-12-20T11:55:26;3.40;;;1.63;;
2123;SDS011;1068;52.460;13.528;2023-12-20T11:57:53;8.03;;;2.50;;
2123;SDS011;1068;52.460;13.528;2023-12-20T12:00:20;4.27;;;1.87;;
2123;SDS011;1068;52.460;13.528;2023-12-20T12:02:57;5.80;;;1.80;;
2123;SDS011;1068;52.460;13.528;2023-12-20T12:05:25;4.40;;;1.80;;
2123;SDS011;1068;52.460;13.528;2023-12-20T12:07:52;6.87;;;2.20;;
2123;SDS011;1068;52.460;13.528;2023-12-20T12:10:19;2.23;;;1.57;;
2123;SDS011;1068;52.460;13.528;2023-12-20T12:12:46;9.30;;;2.40;;
2123;SDS011;1068;52.460;13.528;2023-12-20T12:15:14;7.60;;;1.77;;
2123;SDS011;1068;52.460;13.528;2023-12-20T12:17:41;3.00;;;2.03;;
2123;SDS011;1068;52.460;13.528;2023-12-20T12:20:08;5.77;;;2.77;;
2123;SDS011;1068;52.460;13.528;2023-12-20T12:22:37;6.57;;;1.73;;
2123;SDS011;1068;52.460;13.528;2023-12-20T12:25:10;6.47;;;1.63;;
2123;SDS011;1068;52.460;13.528;2023-12-20T12:27:39;3.73;;;1.50;;
2123;SDS011;1068;52.460;13.528;2023-12-20T12:30:06;8.10;;;1.93;;
2123;SDS011;1068;52.460;13.528;2023-12-20T12:32:34;3.17;;;1.80;;
2123;SDS011;1068;52.460;13.528;2023-12-20T12:35:02;3.20;;;1.50;;
2123;SDS011;1068;52.460;13.528;2023-12-20T12:37:31;2.73;;;1.63;;
2123;SDS011;1068;52.460;13.528;2023-12-20T12:39:59;4.20;;;1.87;;
2123;SDS011;1068;52.460;13.528;2023-12-20T12:42:26;4.30;;;1.40;;
2123;SDS011;1068;52.460;13.528;2023-12-20T12:44:53;3.00;;;1.90;;
2123;SDS011;1068;52.460;13.528;2023-12-20T12:47:21;2.03;;;1.40;;
2123;SDS011;1068;52.460;13.528;2023-12-20T12:49:49;3.40;;;1.57;;
2123;SDS011;1068;52.460;13.528;2023-12-20T12:52:16;5.93;;;2.13;;
2123;SDS011;1068;52.460;13.528;2023-12-20T12:54:43;8.83;;;2.60;;
2123;SDS011;1068;52.460;13.528;2023-12-20T12:57:11;4.33;;;1.77;;
2123;SDS011;1068;52.460;13.528;2023-12-20T12:59:38;7.53;;;2.10;;
2123;SDS011;1068;52.460;13.528;2023-12-20T13:02:06;3.23;;;2.03;;
2123;SDS011;1068;52.460;13.528;2023-12-20T13:04:33;11.53;;;1.90;;
2123;SDS011;1068;52.460;13.528;2023-12-20T13:07:00;3.30;;;2.03;;
2123;SDS011;1068;52.460;13.528;2023-12-20T13:09:27;5.43;;;2.27;;
2123;SDS011;1068;52.460;13.528;2023-12-20T13:11:53;7.73;;;2.80;;
2123;SDS011;1068;52.460;13.528;2023-12-20T13:14:22;3.90;;;2.73;;
2123;SDS011;1068;52.460;13.528;2023-12-20T13:16:49;5.10;;;2.27;;
2123;SDS011;1068;52.460;13.528;2023-12-20T13:19:16;5.23;;;2.27;;
2123;SDS011;1068;52.460;13.528;2023-12-20T13:21:43;6.33;;;2.70;;
2123;SDS011;1068;52.460;13.528;2023-12-20T13:24:09;4.07;;;2.60;;
2123;SDS011;1068;52.460;13.528;2023-12-20T13:26:37;2.90;;;2.13;;
2123;SDS011;1068;52.460;13.528;2023-12-20T13:29:04;11.73;;;2.50;;
2123;SDS011;1068;52.460;13.528;2023-12-20T13:31:32;8.30;;;2.60;;
2123;SDS011;1068;52.460;13.528;2023-12-20T13:34:01;6.47;;;3.40;;
2123;SDS011;1068;52.460;13.528;2023-12-20T13:36:28;4.30;;;2.70;;
2123;SDS011;1068;52.460;13.528;2023-12-20T13:38:55;4.13;;;2.60;;
2123;SDS011;1068;52.460;13.528;2023-12-20T13:41:22;7.67;;;2.43;;
2123;SDS011;1068;52.460;13.528;2023-12-20T13:43:49;3.27;;;2.47;;
2123;SDS011;1068;52.460;13.528;2023-12-20T13:46:16;4.13;;;2.50;;
2123;SDS011;1068;52.460;13.528;2023-12-20T13:48:44;8.73;;;2.60;;
2123;SDS011;1068;52.460;13.528;2023-12-20T13:51:11;2.40;;;1.63;;
2123;SDS011;1068;52.460;13.528;2023-12-20T13:53:38;3.90;;;2.10;;
2123;SDS011;1068;52.460;13.528;2023-12-20T13:56:05;3.00;;;2.30;;
2123;SDS011;1068;52.460;13.528;2023-12-20T13:58:32;1.80;;;1.50;;
2123;SDS011;1068;52.460;13.528;2023-12-20T14:00:59;3.53;;;2.07;;
2123;SDS011;1068;52.460;13.528;2023-12-20T14:03:26;3.10;;;1.60;;
2123;SDS011;1068;52.460;13.528;2023-12-20T14:05:54;5.03;;;2.13;;
2123;SDS011;1068;52.460;13.528;2023-12-20T14:08:21;3.13;;;1.90;;
2123;SDS011;1068;52.460;13.528;2023-12-20T14:10:49;5.97;;;1.60;;
2123;SDS011;1068;52.460;13.528;2023-12-20T14:13:16;1.30;;;1.20;;
2123;SDS011;1068;52.460;13.528;2023-12-20T14:15:43;2.27;;;1.00;;
2123;SDS011;1068;52.460;13.528;2023-12-20T14:18:11;1.20;;;1.07;;
2123;SDS011;1068;52.460;13.528;2023-12-20T14:20:40;1.67;;;1.13;;
2123;SDS011;1068;52.460;13.528;2023-12-20T14:23:08;1.37;;;1.17;;
2123;SDS011;1068;52.460;13.528;2023-12-20T14:25:35;2.93;;;2.00;;
2123;SDS011;1068;52.460;13.528;2023-12-20T14:28:03;3.63;;;1.90;;
2123;SDS011;1068;52.460;13.528;2023-12-20T14:30:30;2.90;;;2.20;;
2123;SDS011;1068;52.460;13.528;2023-12-20T14:32:57;2.60;;;1.93;;
2123;SDS011;1068;52.460;13.528;2023-12-20T14:35:24;1.67;;;1.40;;
2123;SDS011;1068;52.460;13.528;2023-12-20T14:37:51;1.50;;;1.40;;
2123;SDS011;1068;52.460;13.528;2023-12-20T14:40:19;2.20;;;2.00;;
2123;SDS011;1068;52.460;13.528;2023-12-20T14:42:46;2.10;;;1.40;;
2123;SDS011;1068;52.460;13.528;2023-12-20T14:45:14;2.00;;;1.90;;
2123;SDS011;1068;52.460;13.528;2023-12-20T14:47:41;1.50;;;1.40;;
2123;SDS011;1068;52.460;13.528;2023-12-20T14:50:08;3.33;;;1.40;;
2123;SDS011;1068;52.460;13.528;2023-12-20T14:52:36;2.10;;;1.43;;
2123;SDS011;1068;52.460;13.528;2023-12-20T14:55:04;1.43;;;1.33;;
2123;SDS011;1068;52.460;13.528;2023-12-20T14:57:33;2.03;;;1.63;;
2123;SDS011;1068;52.460;13.528;2023-12-20T15:00:00;2.73;;;1.37;;
2123;SDS011;1068;52.460;13.528;2023-12-20T15:02:26;1.30;;;1.20;;